Time;durP1;ratioP1;P1;durP2;ratioP2;P2;SDS_P1;SDS_P2;PMS_P1;PMS_P2;Temp;Humidity;BMP_temperature;BMP_pressure;BME280_temperature;BME280_humidity;BME280_pressure;Samples;Min_cycle;Max_cycle;Signal;HPM_P1;HPM_P2
2022/12/21 00:00:00;;;;;;;139.75;78.63;;;;;;;7.95;75.93;102135.06;4937317;28;20399;-84
2022/12/21 00:02:27;;;;;;;147.27;78.70;;;;;;;7.85;76.43;102119.69;4937847;28;20404;-83
2022/12/21 00:04:54;;;;;;;147.60;78.63;;;;;;;7.86;77.19;102126.72;4936928;28;20169;-85
2022/12/21 00:07:22;;;;;;;152.07;79.72;;;;;;;7.82;76.80;102125.16;4937041;28;20698;-85
2022/12/21 00:09:49;;;;;;;143.27;76.72;;;;;;;7.70;77.05;102099.38;4938308;28;20582;-82
2022/12/21 00:12:15;;;;;;;140.50;76.72;;;;;;;7.28;76.08;102017.00;4936584;28;20057;-84
2022/12/21 00:14:49;;;;;;;141.55;75.18;;;;;;;7.34;75.83;102026.38;4936633;28;20667;-82
2022/12/21 00:17:16;;;;;;;147.02;80.38;;;;;;;6.39;76.11;101865.00;4935664;28;20867;-83
2022/12/21 00:19:53;;;;;;;139.90;76.30;;;;;;;7.38;76.21;102034.97;4937185;28;20042;-85
2022/12/21 00:22:38;;;;;;;142.68;75.15;;;;;;;6.67;76.57;101924.25;4936556;28;20927;-85
2022/12/21 00:25:05;;;;;;;141.05;73.72;;;;;;;7.32;76.08;102014.19;4935858;28;20070;-84
2022/12/21 00:27:32;;;;;;;154.25;79.45;;;;;;;7.54;76.54;102061.47;4936220;28;20089;-84
2022/12/21 00:29:58;;;;;;;140.95;74.68;;;;;;;7.76;76.91;102101.66;4938547;28;20065;-83
2022/12/21 00:32:26;;;;;;;148.95;76.80;;;;;;;6.74;76.70;101936.22;4937341;28;20051;-84
2022/12/21 00:34:53;;;;;;;154.18;75.93;;;;;;;6.35;77.00;101874.00;4936159;28;20327;-84
2022/12/21 00:37:20;;;;;;;145.10;79.85;;;;;;;6.34;77.25;101877.59;4935703;28;20058;-84
2022/12/21 00:39:46;;;;;;;149.43;79.25;;;;;;;6.76;77.15;101932.56;4936187;28;20063;-84
2022/12/21 00:42:14;;;;;;;138.20;77.15;;;;;;;7.10;77.66;101993.31;4935513;28;20058;-84
2022/12/21 00:44:41;;;;;;;152.50;80.03;;;;;;;7.60;76.79;102072.56;4935868;28;20714;-84
2022/12/21 00:47:08;;;;;;;158.70;80.25;;;;;;;7.73;76.43;102099.19;4935367;28;20189;-84
2022/12/21 00:49:37;;;;;;;150.15;76.90;;;;;;;7.68;76.89;102091.50;4935862;28;20063;-83
2022/12/21 00:52:04;;;;;;;142.73;76.78;;;;;;;7.69;76.98;102087.06;4935574;28;20663;-84
2022/12/21 00:54:32;;;;;;;146.45;79.95;;;;;;;7.45;77.21;102042.53;4935486;28;20053;-82
2022/12/21 00:56:58;;;;;;;141.40;76.75;;;;;;;7.76;76.87;102101.66;4935402;28;20603;-84
2022/12/21 00:59:25;;;;;;;141.65;76.78;;;;;;;7.74;77.04;102092.13;4936194;28;20156;-85
2022/12/21 01:01:52;;;;;;;150.10;78.50;;;;;;;7.13;76.38;101996.66;4937728;28;20311;-83
2022/12/21 01:04:21;;;;;;;141.38;76.70;;;;;;;7.73;77.03;102096.56;4939864;28;20340;-85
2022/12/21 01:06:48;;;;;;;153.15;79.47;;;;;;;7.73;76.99;102083.34;4941870;28;20058;-84
2022/12/21 01:09:16;;;;;;;149.30;77.20;;;;;;;7.37;77.48;102028.84;4939857;28;20145;-85
2022/12/21 01:11:43;;;;;;;144.05;77.93;;;;;;;6.62;77.10;101887.56;4938615;28;20050;-83
2022/12/21 01:14:10;;;;;;;150.35;81.35;;;;;;;7.19;77.21;101982.28;4939672;28;20066;-85
2022/12/21 01:16:36;;;;;;;153.57;79.03;;;;;;;7.14;77.42;101984.31;4939161;28;20054;-85
2022/12/21 01:19:06;;;;;;;152.75;82.70;;;;;;;6.76;77.38;101923.78;4938874;28;20480;-85
2022/12/21 01:21:32;;;;;;;146.73;78.22;;;;;;;7.12;77.34;101975.63;4939154;28;20081;-85
2022/12/21 01:24:02;;;;;;;139.23;76.47;;;;;;;6.93;77.52;101949.31;4938601;28;20046;-84
2022/12/21 01:26:32;;;;;;;142.43;75.75;;;;;;;6.17;77.69;101834.44;4938138;28;20062;-86
2022/12/21 01:28:59;;;;;;;146.60;75.97;;;;;;;7.55;78.29;102057.88;4939101;28;20152;-85
2022/12/21 01:31:25;;;;;;;148.60;78.47;;;;;;;7.11;78.45;101979.19;4939636;28;20424;-84
2022/12/21 01:33:53;;;;;;;133.75;76.38;;;;;;;6.84;78.02;101918.97;4938192;28;20054;-85
2022/12/21 01:36:25;;;;;;;155.60;79.32;;;;;;;6.81;77.85;101905.94;4938478;28;20055;-84
2022/12/21 01:38:52;;;;;;;146.45;76.22;;;;;;;7.06;77.37;101945.97;4939015;28;20057;-83
2022/12/21 01:41:25;;;;;;;140.38;74.55;;;;;;;7.20;77.62;101970.78;4939509;28;20514;-84
2022/12/21 01:44:04;;;;;;;148.10;73.95;;;;;;;7.52;77.87;102034.25;4942686;28;20105;-84
2022/12/21 01:46:36;;;;;;;142.63;77.25;;;;;;;7.66;78.18;102060.81;4941543;28;20089;-84
2022/12/21 01:49:17;;;;;;;145.18;76.28;;;;;;;7.48;78.47;102025.66;4942513;28;20057;-84
2022/12/21 01:52:12;;;;;;;149.93;79.20;;;;;;;7.69;78.29;102060.63;4942250;28;20477;-85
2022/12/21 01:55:04;;;;;;;140.52;74.88;;;;;;;7.55;78.64;102036.72;4941013;28;21181;-84
2022/12/21 01:57:33;;;;;;;147.32;73.70;;;;;;;7.65;78.37;102044.09;4942540;28;20251;-84
2022/12/21 02:00:01;;;;;;;138.50;74.15;;;;;;;7.71;77.97;102045.56;4943985;28;20515;-83
2022/12/21 02:02:35;;;;;;;147.18;74.45;;;;;;;7.00;77.29;101935.72;4942962;28;20654;-83
2022/12/21 02:05:25;;;;;;;145.38;76.57;;;;;;;7.42;78.25;102016.25;4942529;28;20054;-84
2022/12/21 02:07:55;;;;;;;138.82;73.60;;;;;;;6.97;77.98;101929.75;4927003;28;20307;-84
2022/12/21 02:10:22;;;;;;;148.35;75.55;;;;;;;6.25;78.00;101812.97;4941600;28;20463;-85
2022/12/21 02:12:53;;;;;;;163.10;76.53;;;;;;;7.55;78.00;102020.88;4942146;28;20669;-84
2022/12/21 02:15:28;;;;;;;141.30;75.07;;;;;;;6.82;78.17;101912.91;4942422;28;20500;-84
2022/12/21 02:18:35;;;;;;;138.32;77.88;;;;;;;7.55;78.20;102027.03;4941336;28;20454;-85
2022/12/21 02:21:43;;;;;;;138.60;72.95;;;;;;;7.05;77.79;101938.97;4950696;28;20642;-83
2022/12/21 02:24:32;;;;;;;142.07;72.82;;;;;;;7.56;78.25;102014.66;4953220;28;20189;-83
2022/12/21 02:27:16;;;;;;;148.98;75.03;;;;;;;6.72;78.20;101872.94;4945394;28;20555;-84
2022/12/21 02:30:20;;;;;;;138.32;72.38;;;;;;;7.58;77.66;102015.44;4947459;28;20054;-85
2022/12/21 02:33:24;;;;;;;147.60;72.93;;;;;;;7.59;78.42;102015.34;4946782;28;20050;-83
2022/12/21 02:36:25;;;;;;;144.52;73.78;;;;;;;7.59;78.03;102010.06;4948556;28;20054;-82
2022/12/21 02:39:27;;;;;;;140.93;73.07;;;;;;;7.60;77.71;102014.44;4948773;28;20090;-85
2022/12/21 02:45:33;;;;;;;131.02;70.57;;;;;;;7.61;79.03;102007.34;4963321;28;20566;-85
2022/12/21 02:48:15;;;;;;;136.65;70.53;;;;;;;7.63;79.44;101998.38;4945836;28;20471;-84
2022/12/21 02:50:52;;;;;;;134.73;67.43;;;;;;;7.17;79.30;101915.47;4949048;28;20529;-83
2022/12/21 02:53:32;;;;;;;136.80;67.15;;;;;;;7.73;79.18;102003.19;4946918;28;20521;-83
2022/12/21 02:56:03;;;;;;;133.50;67.43;;;;;;;7.47;78.96;101958.72;4944339;28;20223;-83
2022/12/21 02:58:36;;;;;;;128.90;66.60;;;;;;;7.67;79.22;101997.31;4947999;28;20421;-86
2022/12/21 03:01:25;;;;;;;136.90;68.20;;;;;;;7.58;79.39;101970.50;4969761;28;20062;-84
2022/12/21 03:04:15;;;;;;;134.02;67.40;;;;;;;7.77;79.25;101972.97;4949275;28;20054;-85
2022/12/21 03:07:10;;;;;;;133.35;65.47;;;;;;;7.77;78.75;101978.25;4946628;28;20259;-84
2022/12/21 03:10:19;;;;;;;128.02;65.18;;;;;;;7.75;78.79;101975.72;4947529;28;20285;-84
2022/12/21 03:13:22;;;;;;;135.18;65.85;;;;;;;7.77;79.41;101984.44;4964198;28;20356;-85
2022/12/21 03:16:04;;;;;;;132.15;64.97;;;;;;;6.64;78.79;101791.53;4941481;28;20100;-85
2022/12/21 03:18:37;;;;;;;135.77;65.45;;;;;;;7.28;79.02;101878.75;4944676;28;20054;-84
2022/12/21 03:21:14;;;;;;;136.25;65.13;;;;;;;7.05;78.94;101846.53;4946592;28;20140;-85
2022/12/21 03:23:54;;;;;;;128.27;63.17;;;;;;;7.04;79.31;101860.69;4946983;28;20054;-83
2022/12/21 03:26:53;;;;;;;129.18;66.40;;;;;;;7.76;79.33;101972.13;4934834;28;20137;-84
2022/12/21 03:29:35;;;;;;;139.23;64.57;;;;;;;7.81;79.24;101966.59;4886929;29;20052;-83
2022/12/21 03:32:34;;;;;;;133.52;62.72;;;;;;;7.69;79.63;101953.13;4950048;28;20390;-82
2022/12/21 03:35:09;;;;;;;130.10;63.13;;;;;;;7.59;78.96;101922.00;4946639;28;20061;-85
2022/12/21 03:37:40;;;;;;;131.30;63.28;;;;;;;7.74;78.86;101952.84;4966604;28;20065;-84
2022/12/21 03:40:25;;;;;;;135.13;65.72;;;;;;;7.81;79.31;101953.38;4964225;28;20768;-85
2022/12/21 03:43:07;;;;;;;131.85;63.63;;;;;;;7.80;80.04;101949.03;4966186;28;20061;-82
2022/12/21 03:45:49;;;;;;;129.27;63.55;;;;;;;7.68;79.52;101924.13;4946763;28;20065;-85
2022/12/21 03:48:34;;;;;;;126.07;65.07;;;;;;;7.51;79.83;101905.72;4955813;28;20413;-85
2022/12/21 03:51:07;;;;;;;141.18;67.68;;;;;;;7.97;79.04;101953.38;4982268;28;20138;-83
2022/12/21 03:53:49;;;;;;;140.80;65.88;;;;;;;7.11;78.88;101826.84;4963530;28;20058;-83
2022/12/21 03:56:28;;;;;;;131.63;65.22;;;;;;;7.76;79.78;101950.97;4964906;28;20511;-82
2022/12/21 03:58:56;;;;;;;136.85;66.18;;;;;;;7.69;80.04;101944.31;4962218;28;20077;-84
2022/12/21 04:01:41;;;;;;;139.88;68.70;;;;;;;7.68;80.17;101940.00;4954012;28;20065;-83
2022/12/21 04:04:37;;;;;;;142.20;67.22;;;;;;;7.67;79.96;101939.16;4975085;28;20134;-84
2022/12/21 04:07:09;;;;;;;143.50;67.88;;;;;;;7.25;80.57;101876.28;4952024;28;20051;-82
2022/12/21 04:09:38;;;;;;;148.43;70.40;;;;;;;7.43;80.50;101911.44;4975290;28;20232;-82
2022/12/21 04:14:53;;;;;;;145.40;66.82;;;;;;;6.99;80.60;101844.25;4961773;28;20047;-83
2022/12/21 04:17:30;;;;;;;133.68;65.80;;;;;;;7.10;79.88;101863.94;4939055;28;20142;-84
2022/12/21 04:20:02;;;;;;;133.93;68.80;;;;;;;6.15;80.29;101701.00;4925089;28;20500;-83
2022/12/21 04:28:18;;;;;;;139.90;70.75;;;;;;;7.57;79.26;101922.06;4945212;28;20535;-81
2022/12/21 04:31:05;;;;;;;134.02;70.13;;;;;;;7.67;80.06;101931.22;4927451;28;20264;-82
2022/12/21 04:33:35;;;;;;;140.75;69.60;;;;;;;7.66;80.09;101928.66;4943774;28;20054;-84
2022/12/21 04:38:51;;;;;;;141.07;66.60;;;;;;;7.65;79.33;101937.53;4974572;28;20043;-83
2022/12/21 04:41:18;;;;;;;144.88;67.07;;;;;;;6.50;79.57;101743.94;4953949;28;20338;-83
2022/12/21 04:43:45;;;;;;;142.73;65.25;;;;;;;7.37;79.22;101895.91;4955473;28;20132;-83
2022/12/21 04:46:17;;;;;;;137.95;63.90;;;;;;;7.10;79.77;101845.44;4975123;28;20056;-82
2022/12/21 04:48:44;;;;;;;146.43;64.75;;;;;;;7.53;79.36;101911.78;4962158;28;20058;-82
2022/12/21 04:51:18;;;;;;;129.63;62.97;;;;;;;7.31;79.82;101880.41;4961951;28;20047;-83
2022/12/21 04:53:49;;;;;;;134.60;63.63;;;;;;;7.23;79.07;101862.31;4978851;28;20069;-83
2022/12/21 04:56:39;;;;;;;137.38;65.28;;;;;;;6.82;79.18;101804.69;4981116;28;20057;-84
2022/12/21 04:59:07;;;;;;;132.45;62.78;;;;;;;7.07;79.18;101849.94;4947478;28;20435;-83
2022/12/21 05:01:35;;;;;;;145.40;67.97;;;;;;;6.97;79.66;101827.63;4962471;28;20538;-84
2022/12/21 05:04:10;;;;;;;134.75;65.13;;;;;;;6.70;79.78;101787.75;4962792;28;20482;-84
2022/12/21 05:06:37;;;;;;;135.93;62.75;;;;;;;7.07;79.42;101852.59;4961191;28;20053;-84
2022/12/21 05:09:04;;;;;;;136.32;63.78;;;;;;;6.86;79.06;101816.78;4959900;28;20054;-82
2022/12/21 05:11:32;;;;;;;142.48;65.18;;;;;;;6.64;79.48;101786.25;4943681;28;20563;-84
2022/12/21 05:14:00;;;;;;;129.13;62.65;;;;;;;6.34;79.37;101735.16;4954487;28;20129;-84
2022/12/21 05:16:27;;;;;;;156.52;63.53;;;;;;;6.87;79.60;101826.44;4976674;28;20554;-84
2022/12/21 05:18:56;;;;;;;130.73;61.60;;;;;;;6.95;79.72;101837.41;4952931;28;20136;-84
2022/12/21 05:21:30;;;;;;;149.70;62.22;;;;;;;7.29;79.53;101891.03;4944269;28;20050;-83
2022/12/21 05:23:58;;;;;;;137.18;60.88;;;;;;;7.20;79.62;101880.97;4944401;28;20058;-84
2022/12/21 05:26:25;;;;;;;130.13;62.00;;;;;;;6.97;79.85;101840.81;4945016;28;20090;-84
2022/12/21 05:28:52;;;;;;;126.80;60.88;;;;;;;6.86;80.05;101832.63;4944129;28;20570;-84
2022/12/21 05:31:19;;;;;;;146.50;62.13;;;;;;;7.28;80.09;101900.75;4942014;28;20046;-84
2022/12/21 05:33:47;;;;;;;143.55;63.85;;;;;;;5.88;79.90;101663.72;4942148;28;20058;-84
2022/12/21 05:36:16;;;;;;;133.48;63.67;;;;;;;7.24;79.73;101885.16;4958723;28;20568;-83
2022/12/21 05:38:44;;;;;;;140.75;60.60;;;;;;;7.11;79.39;101862.97;4942452;28;20058;-84
2022/12/21 05:41:15;;;;;;;134.93;63.70;;;;;;;7.12;79.65;101868.19;4941598;28;20061;-84
2022/12/21 05:43:42;;;;;;;135.25;64.63;;;;;;;7.32;79.39;101908.50;4945049;28;20411;-83
2022/12/21 05:46:12;;;;;;;138.02;62.70;;;;;;;7.04;79.70;101859.84;4942115;28;20587;-83
2022/12/21 05:48:44;;;;;;;132.35;63.20;;;;;;;6.69;79.88;101801.00;4943906;28;20137;-84
2022/12/21 05:51:14;;;;;;;142.23;64.25;;;;;;;7.26;79.48;101899.16;4944779;28;20061;-84
2022/12/21 05:53:43;;;;;;;147.00;65.18;;;;;;;6.89;79.53;101843.00;4945766;28;20214;-84
2022/12/21 05:59:01;;;;;;;142.73;62.10;;;;;;;6.64;79.83;101796.81;4963218;28;20257;-84
2022/12/21 06:01:30;;;;;;;136.75;62.00;;;;;;;6.75;79.72;101820.00;4945891;28;20157;-84
2022/12/21 06:03:59;;;;;;;145.60;62.95;;;;;;;7.14;79.67;101876.03;4955731;28;20070;-81
2022/12/21 06:06:27;;;;;;;142.32;64.57;;;;;;;7.10;79.48;101877.13;4941262;28;20065;-81
2022/12/21 06:08:54;;;;;;;127.72;60.42;;;;;;;7.20;79.64;101896.81;4940253;28;20094;-81
2022/12/21 06:11:23;;;;;;;139.35;64.53;;;;;;;7.13;79.91;101883.09;4939863;28;20320;-83
2022/12/21 06:13:54;;;;;;;142.68;61.72;;;;;;;7.16;79.75;101885.59;4939003;28;20275;-82
2022/12/21 06:20:02;;;;;;;137.80;63.22;;;;;;;7.15;79.83;101883.00;4933476;28;20512;-82
2022/12/21 06:22:34;;;;;;;125.90;58.47;;;;;;;7.20;79.17;101883.63;4940278;28;20097;-81
2022/12/21 06:25:02;;;;;;;;;;;;;;;7.17;79.64;101889.91;4930817;28;20051;-82
2022/12/21 06:27:29;;;;;;;139.07;58.13;;;;;;;7.15;79.73;101870.66;4938508;28;20300;-81
2022/12/21 06:30:03;;;;;;;128.93;61.17;;;;;;;7.23;79.73;101888.72;4940873;28;20058;-81
2022/12/21 06:32:35;;;;;;;133.82;61.08;;;;;;;7.24;79.80;101901.00;4941911;28;20564;-81
2022/12/21 06:35:05;;;;;;;127.65;60.03;;;;;;;7.04;79.71;101873.88;4941099;28;20533;-81
2022/12/21 06:37:32;;;;;;;135.60;60.70;;;;;;;7.04;79.76;101863.31;4941224;28;20403;-82
2022/12/21 06:39:59;;;;;;;150.45;62.75;;;;;;;7.26;79.54;101909.72;4944175;28;20084;-81
2022/12/21 06:42:25;;;;;;;131.20;60.63;;;;;;;6.74;79.41;101820.09;4941888;28;20050;-81
2022/12/21 06:44:52;;;;;;;135.30;60.40;;;;;;;6.49;79.64;101800.28;4940327;28;20077;-81
2022/12/21 06:47:22;;;;;;;133.57;57.47;;;;;;;6.85;80.18;101857.31;4940795;28;20612;-82
2022/12/21 06:49:51;;;;;;;121.88;61.30;;;;;;;7.10;79.88;101904.38;4947147;28;20057;-83
2022/12/21 06:52:20;;;;;;;141.20;61.80;;;;;;;7.10;79.70;101895.63;4943524;28;20965;-83
2022/12/21 06:54:48;;;;;;;144.98;65.28;;;;;;;6.88;80.00;101862.44;4941807;28;20571;-82
2022/12/21 06:57:18;;;;;;;144.98;63.42;;;;;;;7.03;80.40;101890.66;4944363;28;20070;-82
2022/12/21 06:59:45;;;;;;;138.50;67.13;;;;;;;6.17;79.91;101747.44;4958540;28;20247;-81
2022/12/21 07:02:12;;;;;;;140.35;65.18;;;;;;;6.80;79.54;101859.38;4960340;28;20117;-81
2022/12/21 07:04:39;;;;;;;125.80;62.83;;;;;;;6.92;79.93;101887.75;4951749;28;20571;-81
2022/12/21 07:07:05;;;;;;;129.05;65.00;;;;;;;6.98;79.98;101900.59;4942039;28;20471;-79
2022/12/21 07:09:35;;;;;;;144.45;63.67;;;;;;;6.93;80.03;101889.44;4939335;28;20602;-80
2022/12/21 07:12:02;;;;;;;136.48;64.28;;;;;;;6.72;80.43;101832.50;4937327;28;20296;-80
2022/12/21 07:14:28;;;;;;;137.00;61.20;;;;;;;6.01;80.23;101722.78;4942862;28;20958;-82
2022/12/21 07:16:57;;;;;;;133.70;63.20;;;;;;;6.99;80.34;101878.56;4942155;28;20051;-80
2022/12/21 07:19:25;;;;;;;140.75;67.32;;;;;;;7.13;80.01;101906.00;4943114;28;20401;-81
2022/12/21 07:21:52;;;;;;;136.93;66.32;;;;;;;6.58;79.61;101815.63;4939668;28;20055;-80
2022/12/21 07:24:18;;;;;;;146.70;67.75;;;;;;;7.14;79.71;101915.66;4942283;28;20156;-80
2022/12/21 07:26:45;;;;;;;138.63;69.20;;;;;;;7.15;79.17;101917.34;4941965;28;20507;-80
2022/12/21 07:29:12;;;;;;;141.07;67.53;;;;;;;6.42;79.47;101797.09;4940819;28;20138;-81
2022/12/21 07:31:41;;;;;;;155.23;67.93;;;;;;;7.18;79.14;101914.53;4944753;28;20552;-80
2022/12/21 07:34:08;;;;;;;142.50;69.68;;;;;;;7.12;79.27;101904.31;4937611;28;20109;-81
2022/12/21 07:36:34;;;;;;;138.52;66.53;;;;;;;7.13;79.39;101896.28;4936478;28;20347;-81
2022/12/21 07:39:01;;;;;;;144.32;66.35;;;;;;;6.80;79.05;101840.88;4939493;28;20043;-78
2022/12/21 07:41:30;;;;;;;151.63;69.15;;;;;;;7.02;79.31;101883.69;4942564;28;20056;-80
2022/12/21 07:43:56;;;;;;;146.38;69.50;;;;;;;7.15;78.63;101897.06;4941222;28;20058;-80
2022/12/21 07:46:25;;;;;;;132.43;66.43;;;;;;;6.63;78.79;101821.50;4939130;28;20173;-80
2022/12/21 07:48:52;;;;;;;146.32;73.05;;;;;;;7.22;78.78;101911.66;4944317;28;20106;-82
2022/12/21 07:51:19;;;;;;;152.27;69.78;;;;;;;7.25;78.68;101916.75;4941729;28;20059;-81
2022/12/21 07:53:46;;;;;;;141.57;69.22;;;;;;;7.19;78.36;101889.84;4942465;28;20047;-81
2022/12/21 07:56:18;;;;;;;142.77;71.65;;;;;;;7.34;77.85;101910.13;4937655;28;20213;-81
2022/12/21 07:58:45;;;;;;;147.15;66.40;;;;;;;7.43;77.84;101916.72;4944428;28;20062;-81
2022/12/21 08:01:25;;;;;;;138.00;65.68;;;;;;;7.49;77.33;101917.22;4961634;28;20054;-81
2022/12/21 08:03:53;;;;;;;133.48;63.13;;;;;;;7.47;77.50;101913.78;4946762;28;20064;-81
2022/12/21 08:06:23;;;;;;;128.75;64.70;;;;;;;7.45;77.76;101920.09;4941586;28;20395;-81
2022/12/21 08:08:58;;;;;;;130.10;62.25;;;;;;;6.68;77.66;101791.41;4939751;28;20058;-81
2022/12/21 08:11:26;;;;;;;126.78;61.30;;;;;;;7.44;77.79;101908.69;4941369;28;20653;-81
2022/12/21 08:13:52;;;;;;;131.90;59.88;;;;;;;7.48;77.58;101909.38;4939905;28;20369;-80
2022/12/21 08:16:20;;;;;;;123.82;61.78;;;;;;;7.25;76.58;101863.06;4942119;28;20054;-80
2022/12/21 08:19:08;;;;;;;128.57;61.80;;;;;;;7.57;76.37;101923.88;4937517;28;20058;-79
2022/12/21 08:21:39;;;;;;;128.50;64.05;;;;;;;7.46;76.91;101906.81;4944080;28;20066;-80
2022/12/21 08:24:18;;;;;;;127.20;64.00;;;;;;;7.19;77.14;101882.78;4935787;28;20047;-82
2022/12/21 08:26:50;;;;;;;124.85;62.10;;;;;;;7.24;77.20;101886.00;4925268;29;20057;-80
2022/12/21 08:29:16;;;;;;;126.10;62.90;;;;;;;7.43;77.42;101901.72;4919877;29;20691;-80
2022/12/21 08:31:43;;;;;;;125.13;61.67;;;;;;;7.48;77.46;101909.38;4939343;28;20050;-81
2022/12/21 08:34:10;;;;;;;129.30;60.67;;;;;;;7.47;77.46;101913.78;4939064;28;20227;-80
2022/12/21 08:36:40;;;;;;;127.40;63.25;;;;;;;7.35;77.34;101880.13;4939279;28;20055;-81
2022/12/21 08:39:07;;;;;;;136.65;61.78;;;;;;;7.45;77.60;101898.97;4941210;28;20121;-84
2022/12/21 08:41:39;;;;;;;137.50;63.92;;;;;;;7.19;77.17;101858.16;4939650;28;20237;-83
2022/12/21 08:44:09;;;;;;;129.23;59.63;;;;;;;7.48;76.98;101901.47;4940984;28;20062;-83
2022/12/21 08:46:41;;;;;;;120.68;61.17;;;;;;;5.67;76.95;101598.03;4940283;28;20057;-82
2022/12/21 08:49:11;;;;;;;133.82;62.65;;;;;;;6.02;77.21;101668.28;4942446;28;20521;-82
2022/12/21 08:51:44;;;;;;;122.35;61.95;;;;;;;7.45;77.01;101884.00;4938721;28;20923;-83
2022/12/21 08:54:19;;;;;;;129.77;61.33;;;;;;;7.49;76.42;101888.16;4937316;28;20063;-83
2022/12/21 08:56:49;;;;;;;123.90;59.70;;;;;;;7.58;76.19;101885.94;4933299;28;20542;-85
2022/12/21 08:59:15;;;;;;;105.88;57.55;;;;;;;7.61;75.58;101883.97;4951691;28;20401;-83
2022/12/21 09:01:42;;;;;;;128.75;59.63;;;;;;;7.63;75.99;101897.97;4957921;28;20058;-83
2022/12/21 09:04:10;;;;;;;116.22;58.40;;;;;;;7.48;75.88;101852.09;4956195;28;20850;-81
2022/12/21 09:06:37;;;;;;;120.07;59.65;;;;;;;7.71;76.36;101885.16;4964518;28;20066;-83
2022/12/21 09:09:34;;;;;;;124.45;58.95;;;;;;;7.62;76.80;101876.88;5156522;27;20463;-80
2022/12/21 09:12:01;;;;;;;118.03;59.67;;;;;;;7.69;76.61;101881.78;5134823;27;20316;-81
2022/12/21 09:14:28;;;;;;;121.03;58.47;;;;;;;7.76;76.37;101884.91;5113987;27;20115;-79
2022/12/21 09:16:55;;;;;;;124.93;59.75;;;;;;;7.70;76.56;101877.31;5114294;27;20418;-80
2022/12/21 09:19:23;;;;;;;120.60;59.22;;;;;;;7.81;75.62;101877.53;5125634;27;20507;-79
2022/12/21 09:21:50;;;;;;;118.80;59.13;;;;;;;7.68;75.64;101863.34;5137860;27;20050;-79
2022/12/21 09:24:18;;;;;;;118.07;57.53;;;;;;;7.67;74.60;101862.50;5138885;27;20065;-80
2022/12/21 09:26:49;;;;;;;114.72;58.03;;;;;;;7.73;75.21;101871.00;5121020;27;20435;-80
2022/12/21 09:29:16;;;;;;;112.60;57.78;;;;;;;7.79;75.09;101881.22;5122651;27;20181;-80
2022/12/21 09:31:45;;;;;;;126.47;60.58;;;;;;;7.62;74.73;101850.47;5129049;27;20523;-81
2022/12/21 09:34:12;;;;;;;116.57;59.72;;;;;;;7.58;74.61;101852.44;5139357;27;20061;-79
2022/12/21 09:36:45;;;;;;;124.00;57.75;;;;;;;7.45;74.79;101823.22;5139099;27;20038;-80
2022/12/21 09:39:32;;;;;;;121.50;57.88;;;;;;;7.53;74.34;101822.78;5138837;27;20091;-80
2022/12/21 09:42:07;;;;;;;115.25;56.35;;;;;;;7.57;74.70;101834.84;5137903;27;20715;-77
2022/12/21 09:44:55;;;;;;;109.03;54.35;;;;;;;7.98;74.22;101891.59;5130945;27;20510;-80
2022/12/21 09:47:57;;;;;;;125.10;57.22;;;;;;;7.85;73.97;101875.59;5118591;27;20215;-80
2022/12/21 09:50:28;;;;;;;123.22;60.47;;;;;;;7.59;74.02;101827.69;5128826;27;20141;-81
2022/12/21 09:53:11;;;;;;;118.30;57.78;;;;;;;7.98;74.62;101891.59;5134764;27;20470;-79
2022/12/21 09:55:46;;;;;;;131.50;58.65;;;;;;;7.91;74.35;101881.41;5134443;27;20137;-80
2022/12/21 09:58:22;;;;;;;127.20;59.22;;;;;;;8.09;73.80;101878.63;5133316;27;20057;-80
2022/12/21 10:00:58;;;;;;;114.32;58.60;;;;;;;7.69;74.27;101817.44;5135574;27;20342;-83
2022/12/21 10:03:57;;;;;;;113.65;57.90;;;;;;;8.04;74.02;101876.25;5136482;27;20302;-83
2022/12/21 10:06:31;;;;;;;131.75;62.38;;;;;;;8.10;74.04;101882.97;5134433;27;20050;-83
2022/12/21 10:09:02;;;;;;;114.18;58.90;;;;;;;8.16;74.30;101874.69;5137360;27;20087;-83
2022/12/21 10:11:59;;;;;;;125.57;60.05;;;;;;;8.11;73.68;101858.22;5134308;27;20050;-84
2022/12/21 10:14:41;;;;;;;116.75;59.22;;;;;;;8.06;73.97;101877.00;5116148;27;20186;-83
2022/12/21 10:17:10;;;;;;;125.60;62.38;;;;;;;8.09;73.54;101863.59;5118259;27;20111;-83
2022/12/21 10:20:16;;;;;;;121.32;60.42;;;;;;;8.13;73.32;101867.78;5129965;27;20062;-83
2022/12/21 10:22:48;;;;;;;118.75;58.97;;;;;;;7.82;74.07;101815.81;5118179;27;20046;-83
2022/12/21 10:25:22;;;;;;;111.07;58.42;;;;;;;8.13;73.75;101861.63;5106121;27;20218;-82
2022/12/21 10:28:08;;;;;;;127.53;63.17;;;;;;;8.10;73.70;101851.22;5122211;27;20477;-80
2022/12/21 10:30:39;;;;;;;142.48;65.43;;;;;;;8.08;73.38;101845.16;5120679;27;20058;-80
2022/12/21 10:33:11;;;;;;;138.23;66.05;;;;;;;8.23;73.12;101860.16;5108940;27;20507;-80
2022/12/21 10:35:41;;;;;;;141.45;64.82;;;;;;;7.91;73.68;101807.34;5120171;27;20769;-80
2022/12/21 10:38:14;;;;;;;134.70;63.35;;;;;;;8.15;73.62;101843.88;5102303;27;20047;-80
2022/12/21 10:40:46;;;;;;;141.23;65.78;;;;;;;8.06;74.12;101812.69;5101386;27;20530;-80
2022/12/21 10:43:15;;;;;;;131.63;65.63;;;;;;;7.73;73.06;101744.13;5122865;27;20070;-81
2022/12/21 10:45:43;;;;;;;139.15;62.45;;;;;;;7.58;73.46;101714.16;5101819;27;20078;-81
2022/12/21 10:48:11;;;;;;;134.18;63.15;;;;;;;8.30;74.41;101835.03;5101534;27;20500;-81
2022/12/21 10:50:49;;;;;;;139.90;62.05;;;;;;;8.22;73.75;101816.09;5117849;27;20054;-80
2022/12/21 10:53:26;;;;;;;125.55;59.47;;;;;;;7.67;73.47;101730.34;5125011;27;20103;-80
2022/12/21 10:56:05;;;;;;;125.95;59.80;;;;;;;8.29;74.13;101822.72;5119118;27;20145;-81
2022/12/21 10:58:35;;;;;;;126.78;59.17;;;;;;;8.28;73.76;101821.03;5130218;27;20297;-80
2022/12/21 11:01:05;;;;;;;130.45;60.78;;;;;;;7.73;73.70;101718.53;5128771;27;20047;-79
2022/12/21 11:03:39;;;;;;;123.10;58.03;;;;;;;7.84;73.90;101732.00;5121146;27;20331;-81
2022/12/21 11:06:22;;;;;;;105.70;55.90;;;;;;;8.18;74.53;101793.44;5122621;27;20043;-82
2022/12/21 11:08:54;;;;;;;114.70;55.90;;;;;;;8.18;74.66;101795.22;5125782;27;20480;-82
2022/12/21 11:11:34;;;;;;;104.35;53.78;;;;;;;6.93;74.09;101566.53;5143841;27;20605;-82
2022/12/21 11:14:15;;;;;;;106.78;55.42;;;;;;;8.27;74.82;101792.03;5110220;27;20051;-83
2022/12/21 11:16:44;;;;;;;121.15;56.53;;;;;;;7.88;74.39;101717.63;5106165;27;20508;-83
2022/12/21 11:19:17;;;;;;;115.78;55.47;;;;;;;8.26;74.36;101774.47;5095975;27;20153;-83
2022/12/21 11:21:53;;;;;;;118.22;58.10;;;;;;;8.48;74.33;101806.63;5104630;27;20823;-82
2022/12/21 11:24:40;;;;;;;114.13;57.15;;;;;;;8.26;73.88;101754.16;5087479;27;20267;-82
2022/12/21 11:27:11;;;;;;;115.63;56.25;;;;;;;8.47;73.95;101782.91;5085361;27;20472;-82
2022/12/21 11:29:49;;;;;;;103.97;54.30;;;;;;;8.46;74.53;101797.09;5102230;27;20289;-83
2022/12/21 11:32:18;;;;;;;96.20;52.35;;;;;;;8.38;73.57;101783.47;5091654;27;20134;-83
2022/12/21 11:34:45;;;;;;;99.75;50.15;;;;;;;8.55;73.05;101800.03;5107265;27;20050;-83
2022/12/21 11:37:32;;;;;;;92.78;48.47;;;;;;;7.64;73.24;101629.22;5114060;27;20054;-83
2022/12/21 11:40:15;;;;;;;94.75;49.78;;;;;;;8.52;72.71;101779.06;5117872;27;20055;-81
2022/12/21 11:43:02;;;;;;;94.15;48.95;;;;;;;8.43;73.01;101760.25;5124870;27;20282;-82
2022/12/21 11:45:39;;;;;;;103.15;52.10;;;;;;;8.50;72.97;101793.31;5119703;27;20208;-83
2022/12/21 11:48:32;;;;;;;104.85;55.03;;;;;;;8.41;73.44;101789.44;5110364;27;20053;-83
2022/12/21 11:51:10;;;;;;;112.68;57.50;;;;;;;8.46;73.36;101786.50;5124935;27;20059;-81
2022/12/21 11:54:03;;;;;;;111.30;56.03;;;;;;;7.69;74.30;101654.44;5107420;27;20058;-83
2022/12/21 11:56:53;;;;;;;112.85;55.17;;;;;;;7.71;73.32;101657.81;5124158;27;20089;-82
2022/12/21 11:59:28;;;;;;;106.20;52.17;;;;;;;8.45;73.28;101771.59;5108048;27;20058;-81